sensor_id;sensor_type;location;lat;lon;timestamp;P1;durP1;ratioP1;P2;durP2;ratioP2
18172;SDS011;9211;48.818;9.312;2022-12-20T00:01:56;37.87;;;19.57;;
18172;SDS011;9211;48.818;9.312;2022-12-20T00:04:23;39.00;;;19.75;;
18172;SDS011;9211;48.818;9.312;2022-12-20T00:06:50;38.53;;;18.98;;
18172;SDS011;9211;48.818;9.312;2022-12-20T00:09:18;37.53;;;19.00;;
18172;SDS011;9211;48.818;9.312;2022-12-20T00:11:45;37.28;;;18.95;;
18172;SDS011;9211;48.818;9.312;2022-12-20T00:14:12;35.78;;;19.00;;
18172;SDS011;9211;48.818;9.312;2022-12-20T00:16:39;36.92;;;19.40;;
18172;SDS011;9211;48.818;9.312;2022-12-20T00:19:06;38.97;;;18.88;;
18172;SDS011;9211;48.818;9.312;2022-12-20T00:21:35;41.63;;;18.85;;
18172;SDS011;9211;48.818;9.312;2022-12-20T00:24:03;40.05;;;19.05;;
18172;SDS011;9211;48.818;9.312;2022-12-20T00:26:33;35.97;;;18.50;;
18172;SDS011;9211;48.818;9.312;2022-12-20T00:29:00;39.43;;;18.80;;
18172;SDS011;9211;48.818;9.312;2022-12-20T00:31:28;37.08;;;18.85;;
18172;SDS011;9211;48.818;9.312;2022-12-20T00:33:55;35.92;;;18.20;;
18172;SDS011;9211;48.818;9.312;2022-12-20T00:36:24;36.65;;;18.17;;
18172;SDS011;9211;48.818;9.312;2022-12-20T00:38:53;36.60;;;18.38;;
18172;SDS011;9211;48.818;9.312;2022-12-20T00:41:22;41.35;;;20.67;;
18172;SDS011;9211;48.818;9.312;2022-12-20T00:43:52;38.72;;;19.25;;
18172;SDS011;9211;48.818;9.312;2022-12-20T00:46:21;37.90;;;19.55;;
18172;SDS011;9211;48.818;9.312;2022-12-20T00:48:50;42.63;;;21.02;;
18172;SDS011;9211;48.818;9.312;2022-12-20T00:51:19;38.80;;;19.70;;
18172;SDS011;9211;48.818;9.312;2022-12-20T00:53:48;38.13;;;19.25;;
18172;SDS011;9211;48.818;9.312;2022-12-20T00:56:15;38.27;;;19.10;;
18172;SDS011;9211;48.818;9.312;2022-12-20T00:58:43;38.00;;;19.23;;
18172;SDS011;9211;48.818;9.312;2022-12-20T01:01:16;37.53;;;19.63;;
18172;SDS011;9211;48.818;9.312;2022-12-20T01:03:46;36.28;;;18.88;;
18172;SDS011;9211;48.818;9.312;2022-12-20T01:06:14;37.35;;;18.42;;
18172;SDS011;9211;48.818;9.312;2022-12-20T01:08:41;38.47;;;18.23;;
18172;SDS011;9211;48.818;9.312;2022-12-20T01:11:10;35.95;;;18.17;;
18172;SDS011;9211;48.818;9.312;2022-12-20T01:13:40;34.58;;;18.25;;
18172;SDS011;9211;48.818;9.312;2022-12-20T01:16:10;37.67;;;18.20;;
18172;SDS011;9211;48.818;9.312;2022-12-20T01:18:41;35.25;;;17.65;;
18172;SDS011;9211;48.818;9.312;2022-12-20T01:21:09;35.60;;;17.95;;
18172;SDS011;9211;48.818;9.312;2022-12-20T01:23:37;35.13;;;17.83;;
18172;SDS011;9211;48.818;9.312;2022-12-20T01:26:05;33.40;;;17.00;;
18172;SDS011;9211;48.818;9.312;2022-12-20T01:28:35;35.50;;;17.92;;
18172;SDS011;9211;48.818;9.312;2022-12-20T01:31:04;36.22;;;17.77;;
18172;SDS011;9211;48.818;9.312;2022-12-20T01:33:32;35.42;;;17.08;;
18172;SDS011;9211;48.818;9.312;2022-12-20T01:36:02;32.92;;;17.05;;
18172;SDS011;9211;48.818;9.312;2022-12-20T01:38:30;32.88;;;16.92;;
18172;SDS011;9211;48.818;9.312;2022-12-20T01:40:58;31.92;;;16.42;;
18172;SDS011;9211;48.818;9.312;2022-12-20T01:43:28;33.65;;;17.20;;
18172;SDS011;9211;48.818;9.312;2022-12-20T01:46:11;34.72;;;17.40;;
18172;SDS011;9211;48.818;9.312;2022-12-20T01:48:38;31.90;;;16.27;;
18172;SDS011;9211;48.818;9.312;2022-12-20T01:51:09;32.70;;;17.52;;
18172;SDS011;9211;48.818;9.312;2022-12-20T01:53:36;33.70;;;17.38;;
18172;SDS011;9211;48.818;9.312;2022-12-20T01:56:04;35.38;;;17.65;;
18172;SDS011;9211;48.818;9.312;2022-12-20T01:58:32;35.72;;;17.55;;
18172;SDS011;9211;48.818;9.312;2022-12-20T02:01:02;33.72;;;16.95;;
18172;SDS011;9211;48.818;9.312;2022-12-20T02:03:29;33.78;;;17.60;;
18172;SDS011;9211;48.818;9.312;2022-12-20T02:05:57;32.45;;;16.95;;
18172;SDS011;9211;48.818;9.312;2022-12-20T02:08:41;34.40;;;17.00;;
18172;SDS011;9211;48.818;9.312;2022-12-20T02:11:12;35.92;;;17.58;;
18172;SDS011;9211;48.818;9.312;2022-12-20T02:13:50;31.33;;;16.77;;
18172;SDS011;9211;48.818;9.312;2022-12-20T02:16:31;33.90;;;17.40;;
18172;SDS011;9211;48.818;9.312;2022-12-20T02:19:06;33.15;;;17.60;;
18172;SDS011;9211;48.818;9.312;2022-12-20T02:21:42;33.65;;;16.73;;
18172;SDS011;9211;48.818;9.312;2022-12-20T02:27:15;32.72;;;16.95;;
18172;SDS011;9211;48.818;9.312;2022-12-20T02:30:09;33.67;;;16.57;;
18172;SDS011;9211;48.818;9.312;2022-12-20T02:32:39;31.07;;;16.33;;
18172;SDS011;9211;48.818;9.312;2022-12-20T02:35:12;31.38;;;16.67;;
18172;SDS011;9211;48.818;9.312;2022-12-20T02:37:50;32.00;;;16.70;;
18172;SDS011;9211;48.818;9.312;2022-12-20T02:40:20;34.08;;;16.63;;
18172;SDS011;9211;48.818;9.312;2022-12-20T02:42:50;33.78;;;17.05;;
18172;SDS011;9211;48.818;9.312;2022-12-20T02:45:23;34.35;;;16.88;;
18172;SDS011;9211;48.818;9.312;2022-12-20T02:47:53;33.80;;;17.15;;
18172;SDS011;9211;48.818;9.312;2022-12-20T02:50:25;33.53;;;17.25;;
18172;SDS011;9211;48.818;9.312;2022-12-20T02:52:56;33.53;;;17.33;;
18172;SDS011;9211;48.818;9.312;2022-12-20T02:55:27;36.30;;;17.10;;
18172;SDS011;9211;48.818;9.312;2022-12-20T02:58:01;31.83;;;16.65;;
18172;SDS011;9211;48.818;9.312;2022-12-20T03:03:07;31.02;;;16.35;;
18172;SDS011;9211;48.818;9.312;2022-12-20T03:05:48;31.98;;;16.35;;
18172;SDS011;9211;48.818;9.312;2022-12-20T03:08:17;31.00;;;16.17;;
18172;SDS011;9211;48.818;9.312;2022-12-20T03:10:46;32.08;;;16.65;;
18172;SDS011;9211;48.818;9.312;2022-12-20T03:13:14;31.77;;;15.80;;
18172;SDS011;9211;48.818;9.312;2022-12-20T03:15:53;32.38;;;16.17;;
18172;SDS011;9211;48.818;9.312;2022-12-20T03:18:22;31.88;;;16.48;;
18172;SDS011;9211;48.818;9.312;2022-12-20T03:20:49;31.70;;;15.70;;
18172;SDS011;9211;48.818;9.312;2022-12-20T03:23:16;31.23;;;16.47;;
18172;SDS011;9211;48.818;9.312;2022-12-20T03:25:43;29.27;;;16.58;;
18172;SDS011;9211;48.818;9.312;2022-12-20T03:28:18;29.95;;;16.15;;
18172;SDS011;9211;48.818;9.312;2022-12-20T03:30:45;32.90;;;17.25;;
18172;SDS011;9211;48.818;9.312;2022-12-20T03:33:13;29.73;;;16.13;;
18172;SDS011;9211;48.818;9.312;2022-12-20T03:35:42;31.90;;;16.25;;
18172;SDS011;9211;48.818;9.312;2022-12-20T03:38:09;33.17;;;17.15;;
18172;SDS011;9211;48.818;9.312;2022-12-20T03:40:36;33.42;;;16.40;;
18172;SDS011;9211;48.818;9.312;2022-12-20T03:43:03;29.10;;;15.88;;
18172;SDS011;9211;48.818;9.312;2022-12-20T03:45:30;31.95;;;17.20;;
18172;SDS011;9211;48.818;9.312;2022-12-20T03:47:57;31.38;;;15.82;;
18172;SDS011;9211;48.818;9.312;2022-12-20T03:50:27;34.10;;;16.83;;
18172;SDS011;9211;48.818;9.312;2022-12-20T03:52:57;34.25;;;17.20;;
18172;SDS011;9211;48.818;9.312;2022-12-20T03:55:25;31.92;;;17.10;;
18172;SDS011;9211;48.818;9.312;2022-12-20T03:57:52;32.13;;;16.80;;
18172;SDS011;9211;48.818;9.312;2022-12-20T04:00:26;32.53;;;16.73;;
18172;SDS011;9211;48.818;9.312;2022-12-20T04:03:06;33.85;;;17.27;;
18172;SDS011;9211;48.818;9.312;2022-12-20T04:05:34;35.85;;;17.55;;
18172;SDS011;9211;48.818;9.312;2022-12-20T04:08:02;34.65;;;17.58;;
18172;SDS011;9211;48.818;9.312;2022-12-20T04:10:29;34.07;;;17.83;;
18172;SDS011;9211;48.818;9.312;2022-12-20T04:12:57;34.13;;;17.65;;
18172;SDS011;9211;48.818;9.312;2022-12-20T04:15:24;34.10;;;17.37;;
18172;SDS011;9211;48.818;9.312;2022-12-20T04:17:51;34.63;;;17.40;;
18172;SDS011;9211;48.818;9.312;2022-12-20T04:20:18;33.95;;;17.27;;
18172;SDS011;9211;48.818;9.312;2022-12-20T04:22:53;36.47;;;18.08;;
18172;SDS011;9211;48.818;9.312;2022-12-20T04:25:22;35.55;;;17.70;;
18172;SDS011;9211;48.818;9.312;2022-12-20T04:27:49;33.73;;;17.73;;
18172;SDS011;9211;48.818;9.312;2022-12-20T04:30:17;32.85;;;17.60;;
18172;SDS011;9211;48.818;9.312;2022-12-20T04:32:44;35.22;;;18.10;;
18172;SDS011;9211;48.818;9.312;2022-12-20T04:35:11;35.33;;;18.08;;
18172;SDS011;9211;48.818;9.312;2022-12-20T04:37:40;34.28;;;17.75;;
18172;SDS011;9211;48.818;9.312;2022-12-20T04:40:08;36.08;;;17.60;;
18172;SDS011;9211;48.818;9.312;2022-12-20T04:42:48;34.43;;;17.80;;
18172;SDS011;9211;48.818;9.312;2022-12-20T04:45:17;33.58;;;16.65;;
18172;SDS011;9211;48.818;9.312;2022-12-20T04:47:44;33.47;;;17.50;;
18172;SDS011;9211;48.818;9.312;2022-12-20T04:50:14;32.23;;;17.53;;
18172;SDS011;9211;48.818;9.312;2022-12-20T04:52:42;32.67;;;17.42;;
18172;SDS011;9211;48.818;9.312;2022-12-20T04:55:28;33.17;;;17.27;;
18172;SDS011;9211;48.818;9.312;2022-12-20T04:57:58;32.60;;;16.65;;
18172;SDS011;9211;48.818;9.312;2022-12-20T05:00:25;30.17;;;16.23;;
18172;SDS011;9211;48.818;9.312;2022-12-20T05:03:00;34.33;;;16.73;;
18172;SDS011;9211;48.818;9.312;2022-12-20T05:05:27;34.05;;;17.05;;
18172;SDS011;9211;48.818;9.312;2022-12-20T05:07:56;31.02;;;16.10;;
18172;SDS011;9211;48.818;9.312;2022-12-20T05:10:23;31.90;;;16.80;;
18172;SDS011;9211;48.818;9.312;2022-12-20T05:12:53;34.17;;;16.83;;
18172;SDS011;9211;48.818;9.312;2022-12-20T05:15:31;32.40;;;16.50;;
18172;SDS011;9211;48.818;9.312;2022-12-20T05:17:59;28.83;;;15.82;;
18172;SDS011;9211;48.818;9.312;2022-12-20T05:20:34;34.33;;;16.85;;
18172;SDS011;9211;48.818;9.312;2022-12-20T05:23:01;30.35;;;16.15;;
18172;SDS011;9211;48.818;9.312;2022-12-20T05:25:49;32.75;;;16.67;;
18172;SDS011;9211;48.818;9.312;2022-12-20T05:28:37;32.92;;;16.42;;
18172;SDS011;9211;48.818;9.312;2022-12-20T05:31:06;33.22;;;16.77;;
18172;SDS011;9211;48.818;9.312;2022-12-20T05:33:34;32.10;;;16.00;;
18172;SDS011;9211;48.818;9.312;2022-12-20T05:36:02;34.28;;;16.70;;
18172;SDS011;9211;48.818;9.312;2022-12-20T05:38:30;30.23;;;16.00;;
18172;SDS011;9211;48.818;9.312;2022-12-20T05:40:58;31.58;;;16.90;;
18172;SDS011;9211;48.818;9.312;2022-12-20T05:43:25;33.92;;;17.10;;
18172;SDS011;9211;48.818;9.312;2022-12-20T05:45:52;33.40;;;16.55;;
18172;SDS011;9211;48.818;9.312;2022-12-20T05:48:30;30.80;;;16.33;;
18172;SDS011;9211;48.818;9.312;2022-12-20T05:50:58;31.52;;;16.55;;
18172;SDS011;9211;48.818;9.312;2022-12-20T05:53:30;31.83;;;17.33;;
18172;SDS011;9211;48.818;9.312;2022-12-20T05:56:00;33.97;;;17.08;;
18172;SDS011;9211;48.818;9.312;2022-12-20T05:58:30;32.00;;;16.67;;
18172;SDS011;9211;48.818;9.312;2022-12-20T06:01:00;32.67;;;16.73;;
18172;SDS011;9211;48.818;9.312;2022-12-20T06:03:31;30.58;;;15.48;;
18172;SDS011;9211;48.818;9.312;2022-12-20T06:05:59;30.55;;;16.00;;
18172;SDS011;9211;48.818;9.312;2022-12-20T06:08:29;31.53;;;16.17;;
18172;SDS011;9211;48.818;9.312;2022-12-20T06:10:58;31.33;;;16.88;;
18172;SDS011;9211;48.818;9.312;2022-12-20T06:13:28;31.03;;;15.77;;
18172;SDS011;9211;48.818;9.312;2022-12-20T06:15:55;31.90;;;16.33;;
18172;SDS011;9211;48.818;9.312;2022-12-20T06:18:22;29.45;;;15.68;;
18172;SDS011;9211;48.818;9.312;2022-12-20T06:20:54;31.40;;;16.55;;
18172;SDS011;9211;48.818;9.312;2022-12-20T06:23:22;32.45;;;16.27;;
18172;SDS011;9211;48.818;9.312;2022-12-20T06:26:09;30.90;;;16.65;;
18172;SDS011;9211;48.818;9.312;2022-12-20T06:28:46;33.70;;;17.07;;
18172;SDS011;9211;48.818;9.312;2022-12-20T06:31:20;32.45;;;16.52;;
18172;SDS011;9211;48.818;9.312;2022-12-20T06:33:50;30.63;;;16.08;;
18172;SDS011;9211;48.818;9.312;2022-12-20T06:36:21;30.17;;;15.02;;
18172;SDS011;9211;48.818;9.312;2022-12-20T06:38:49;31.25;;;15.57;;
18172;SDS011;9211;48.818;9.312;2022-12-20T06:41:16;30.58;;;15.55;;
18172;SDS011;9211;48.818;9.312;2022-12-20T06:43:44;31.08;;;15.63;;
18172;SDS011;9211;48.818;9.312;2022-12-20T06:46:11;28.97;;;14.93;;
18172;SDS011;9211;48.818;9.312;2022-12-20T06:48:38;30.40;;;14.85;;
18172;SDS011;9211;48.818;9.312;2022-12-20T06:51:06;27.02;;;14.35;;
18172;SDS011;9211;48.818;9.312;2022-12-20T06:53:35;29.10;;;14.90;;
18172;SDS011;9211;48.818;9.312;2022-12-20T06:56:03;31.53;;;15.97;;
18172;SDS011;9211;48.818;9.312;2022-12-20T06:58:30;28.97;;;15.53;;
18172;SDS011;9211;48.818;9.312;2022-12-20T07:00:57;29.75;;;15.30;;
18172;SDS011;9211;48.818;9.312;2022-12-20T07:03:24;30.25;;;15.20;;
18172;SDS011;9211;48.818;9.312;2022-12-20T07:05:51;28.52;;;15.50;;
18172;SDS011;9211;48.818;9.312;2022-12-20T07:08:19;27.05;;;14.48;;
18172;SDS011;9211;48.818;9.312;2022-12-20T07:10:48;31.50;;;15.80;;
18172;SDS011;9211;48.818;9.312;2022-12-20T07:13:16;30.60;;;15.38;;
18172;SDS011;9211;48.818;9.312;2022-12-20T07:15:44;28.92;;;15.35;;
18172;SDS011;9211;48.818;9.312;2022-12-20T07:18:11;31.92;;;15.45;;
18172;SDS011;9211;48.818;9.312;2022-12-20T07:20:38;30.23;;;14.82;;
18172;SDS011;9211;48.818;9.312;2022-12-20T07:23:05;27.50;;;14.80;;
18172;SDS011;9211;48.818;9.312;2022-12-20T07:25:32;29.00;;;15.27;;
18172;SDS011;9211;48.818;9.312;2022-12-20T07:28:00;28.40;;;15.40;;
18172;SDS011;9211;48.818;9.312;2022-12-20T07:30:28;28.73;;;15.23;;
18172;SDS011;9211;48.818;9.312;2022-12-20T07:32:55;31.33;;;16.00;;
18172;SDS011;9211;48.818;9.312;2022-12-20T07:35:22;29.50;;;15.80;;
18172;SDS011;9211;48.818;9.312;2022-12-20T07:37:50;29.73;;;15.30;;
18172;SDS011;9211;48.818;9.312;2022-12-20T07:40:17;31.95;;;15.88;;
18172;SDS011;9211;48.818;9.312;2022-12-20T07:42:44;32.33;;;16.05;;
18172;SDS011;9211;48.818;9.312;2022-12-20T07:45:13;32.85;;;16.17;;
18172;SDS011;9211;48.818;9.312;2022-12-20T07:47:40;31.52;;;16.52;;
18172;SDS011;9211;48.818;9.312;2022-12-20T07:50:08;30.23;;;15.77;;
18172;SDS011;9211;48.818;9.312;2022-12-20T07:52:35;28.07;;;15.50;;
18172;SDS011;9211;48.818;9.312;2022-12-20T07:55:05;27.13;;;15.15;;
18172;SDS011;9211;48.818;9.312;2022-12-20T07:57:34;30.85;;;15.88;;
18172;SDS011;9211;48.818;9.312;2022-12-20T08:00:05;29.65;;;16.15;;
18172;SDS011;9211;48.818;9.312;2022-12-20T08:02:40;32.38;;;16.23;;
18172;SDS011;9211;48.818;9.312;2022-12-20T08:05:11;29.83;;;15.20;;
18172;SDS011;9211;48.818;9.312;2022-12-20T08:07:40;32.25;;;15.43;;
18172;SDS011;9211;48.818;9.312;2022-12-20T08:10:11;32.10;;;15.38;;
18172;SDS011;9211;48.818;9.312;2022-12-20T08:12:41;27.77;;;15.17;;
18172;SDS011;9211;48.818;9.312;2022-12-20T08:15:10;28.95;;;15.38;;
18172;SDS011;9211;48.818;9.312;2022-12-20T08:17:37;30.05;;;15.48;;
18172;SDS011;9211;48.818;9.312;2022-12-20T08:20:06;29.55;;;14.95;;
18172;SDS011;9211;48.818;9.312;2022-12-20T08:22:34;27.38;;;14.90;;
18172;SDS011;9211;48.818;9.312;2022-12-20T08:25:01;28.77;;;15.20;;
18172;SDS011;9211;48.818;9.312;2022-12-20T08:27:29;27.27;;;14.50;;
18172;SDS011;9211;48.818;9.312;2022-12-20T08:29:56;25.77;;;14.38;;
18172;SDS011;9211;48.818;9.312;2022-12-20T08:32:23;25.65;;;14.27;;
18172;SDS011;9211;48.818;9.312;2022-12-20T08:34:52;27.92;;;14.13;;
18172;SDS011;9211;48.818;9.312;2022-12-20T08:37:19;26.85;;;14.75;;
18172;SDS011;9211;48.818;9.312;2022-12-20T08:39:46;29.52;;;15.27;;
18172;SDS011;9211;48.818;9.312;2022-12-20T08:42:14;27.88;;;14.75;;
18172;SDS011;9211;48.818;9.312;2022-12-20T08:44:40;31.27;;;14.73;;
18172;SDS011;9211;48.818;9.312;2022-12-20T08:47:08;27.55;;;14.50;;
18172;SDS011;9211;48.818;9.312;2022-12-20T08:49:35;29.80;;;14.60;;
18172;SDS011;9211;48.818;9.312;2022-12-20T08:52:03;24.58;;;13.68;;
18172;SDS011;9211;48.818;9.312;2022-12-20T08:54:31;24.70;;;13.45;;
18172;SDS011;9211;48.818;9.312;2022-12-20T08:56:57;22.05;;;13.18;;
18172;SDS011;9211;48.818;9.312;2022-12-20T08:59:24;24.23;;;12.88;;
18172;SDS011;9211;48.818;9.312;2022-12-20T09:01:51;25.47;;;12.80;;
18172;SDS011;9211;48.818;9.312;2022-12-20T09:04:18;23.15;;;12.23;;
18172;SDS011;9211;48.818;9.312;2022-12-20T09:06:45;24.58;;;12.75;;
18172;SDS011;9211;48.818;9.312;2022-12-20T09:09:14;21.40;;;12.77;;
18172;SDS011;9211;48.818;9.312;2022-12-20T09:11:41;24.33;;;13.02;;
18172;SDS011;9211;48.818;9.312;2022-12-20T09:14:08;23.00;;;12.80;;
18172;SDS011;9211;48.818;9.312;2022-12-20T09:16:35;24.98;;;12.80;;
18172;SDS011;9211;48.818;9.312;2022-12-20T09:19:03;22.88;;;12.60;;
18172;SDS011;9211;48.818;9.312;2022-12-20T09:21:30;22.55;;;12.70;;
18172;SDS011;9211;48.818;9.312;2022-12-20T09:23:58;23.25;;;12.38;;
18172;SDS011;9211;48.818;9.312;2022-12-20T09:26:26;22.60;;;12.77;;
18172;SDS011;9211;48.818;9.312;2022-12-20T09:28:53;23.42;;;13.07;;
18172;SDS011;9211;48.818;9.312;2022-12-20T09:31:21;20.97;;;11.87;;
18172;SDS011;9211;48.818;9.312;2022-12-20T09:33:51;23.63;;;12.98;;
18172;SDS011;9211;48.818;9.312;2022-12-20T09:36:20;23.55;;;12.98;;
18172;SDS011;9211;48.818;9.312;2022-12-20T09:38:48;23.35;;;13.13;;
18172;SDS011;9211;48.818;9.312;2022-12-20T09:41:18;22.92;;;12.32;;
18172;SDS011;9211;48.818;9.312;2022-12-20T09:43:51;21.95;;;11.45;;
18172;SDS011;9211;48.818;9.312;2022-12-20T09:46:20;19.25;;;11.75;;
18172;SDS011;9211;48.818;9.312;2022-12-20T09:48:48;22.08;;;12.48;;
18172;SDS011;9211;48.818;9.312;2022-12-20T09:51:20;24.90;;;14.73;;
18172;SDS011;9211;48.818;9.312;2022-12-20T09:53:57;23.00;;;13.32;;
18172;SDS011;9211;48.818;9.312;2022-12-20T09:56:33;22.90;;;12.60;;
18172;SDS011;9211;48.818;9.312;2022-12-20T09:59:04;24.15;;;13.60;;
18172;SDS011;9211;48.818;9.312;2022-12-20T10:01:36;24.40;;;13.60;;
18172;SDS011;9211;48.818;9.312;2022-12-20T10:04:05;29.65;;;14.45;;
18172;SDS011;9211;48.818;9.312;2022-12-20T10:06:40;25.25;;;13.63;;
18172;SDS011;9211;48.818;9.312;2022-12-20T10:09:20;24.83;;;13.73;;
18172;SDS011;9211;48.818;9.312;2022-12-20T10:12:02;23.70;;;12.95;;
18172;SDS011;9211;48.818;9.312;2022-12-20T10:14:45;23.13;;;11.77;;
18172;SDS011;9211;48.818;9.312;2022-12-20T10:17:29;20.40;;;11.07;;
18172;SDS011;9211;48.818;9.312;2022-12-20T10:22:58;25.10;;;12.48;;
18172;SDS011;9211;48.818;9.312;2022-12-20T10:25:29;23.02;;;11.85;;
18172;SDS011;9211;48.818;9.312;2022-12-20T10:27:59;21.67;;;12.48;;
18172;SDS011;9211;48.818;9.312;2022-12-20T10:30:30;19.50;;;10.95;;
18172;SDS011;9211;48.818;9.312;2022-12-20T10:32:59;19.02;;;10.63;;
18172;SDS011;9211;48.818;9.312;2022-12-20T10:35:28;21.52;;;10.95;;
18172;SDS011;9211;48.818;9.312;2022-12-20T10:37:57;23.70;;;11.90;;
18172;SDS011;9211;48.818;9.312;2022-12-20T10:40:26;23.80;;;11.93;;
18172;SDS011;9211;48.818;9.312;2022-12-20T10:42:55;20.70;;;11.55;;
18172;SDS011;9211;48.818;9.312;2022-12-20T10:45:33;21.67;;;11.10;;
18172;SDS011;9211;48.818;9.312;2022-12-20T10:48:02;20.77;;;11.20;;
18172;SDS011;9211;48.818;9.312;2022-12-20T10:50:31;17.58;;;10.25;;
18172;SDS011;9211;48.818;9.312;2022-12-20T10:53:02;20.13;;;10.25;;
18172;SDS011;9211;48.818;9.312;2022-12-20T10:55:46;23.55;;;12.60;;
18172;SDS011;9211;48.818;9.312;2022-12-20T10:58:14;20.73;;;11.30;;
18172;SDS011;9211;48.818;9.312;2022-12-20T11:00:43;21.23;;;10.70;;
18172;SDS011;9211;48.818;9.312;2022-12-20T11:03:15;22.17;;;10.65;;
18172;SDS011;9211;48.818;9.312;2022-12-20T11:05:51;20.90;;;11.20;;
18172;SDS011;9211;48.818;9.312;2022-12-20T11:08:27;21.80;;;10.80;;
18172;SDS011;9211;48.818;9.312;2022-12-20T11:13:44;18.42;;;10.10;;
18172;SDS011;9211;48.818;9.312;2022-12-20T11:16:27;16.80;;;9.50;;
18172;SDS011;9211;48.818;9.312;2022-12-20T11:19:01;19.67;;;10.35;;
18172;SDS011;9211;48.818;9.312;2022-12-20T11:21:49;21.80;;;11.73;;
18172;SDS011;9211;48.818;9.312;2022-12-20T11:24:23;21.30;;;11.40;;
18172;SDS011;9211;48.818;9.312;2022-12-20T11:26:59;21.67;;;11.38;;
18172;SDS011;9211;48.818;9.312;2022-12-20T11:32:35;20.87;;;11.53;;
18172;SDS011;9211;48.818;9.312;2022-12-20T11:35:16;20.50;;;11.55;;
18172;SDS011;9211;48.818;9.312;2022-12-20T11:37:48;21.05;;;11.43;;
18172;SDS011;9211;48.818;9.312;2022-12-20T11:40:26;20.88;;;11.15;;
18172;SDS011;9211;48.818;9.312;2022-12-20T11:43:09;19.90;;;11.40;;
18172;SDS011;9211;48.818;9.312;2022-12-20T11:46:00;23.35;;;11.73;;
18172;SDS011;9211;48.818;9.312;2022-12-20T11:48:53;21.80;;;11.77;;
18172;SDS011;9211;48.818;9.312;2022-12-20T11:51:31;21.33;;;11.57;;
18172;SDS011;9211;48.818;9.312;2022-12-20T11:54:10;20.58;;;11.23;;
18172;SDS011;9211;48.818;9.312;2022-12-20T11:56:40;21.03;;;11.43;;
18172;SDS011;9211;48.818;9.312;2022-12-20T11:59:11;21.70;;;11.50;;
18172;SDS011;9211;48.818;9.312;2022-12-20T12:01:45;22.13;;;11.93;;
18172;SDS011;9211;48.818;9.312;2022-12-20T12:04:19;22.02;;;11.57;;
18172;SDS011;9211;48.818;9.312;2022-12-20T12:06:51;18.40;;;10.95;;
18172;SDS011;9211;48.818;9.312;2022-12-20T12:09:23;19.57;;;10.80;;
18172;SDS011;9211;48.818;9.312;2022-12-20T12:11:56;21.03;;;11.67;;
18172;SDS011;9211;48.818;9.312;2022-12-20T12:14:36;22.45;;;12.05;;
18172;SDS011;9211;48.818;9.312;2022-12-20T12:17:11;22.73;;;11.73;;
18172;SDS011;9211;48.818;9.312;2022-12-20T12:19:45;20.45;;;11.43;;
18172;SDS011;9211;48.818;9.312;2022-12-20T12:22:15;22.37;;;12.10;;
18172;SDS011;9211;48.818;9.312;2022-12-20T12:24:50;24.52;;;12.57;;
18172;SDS011;9211;48.818;9.312;2022-12-20T12:27:22;21.67;;;12.00;;
18172;SDS011;9211;48.818;9.312;2022-12-20T12:29:50;23.10;;;12.15;;
18172;SDS011;9211;48.818;9.312;2022-12-20T12:32:21;21.73;;;12.60;;
18172;SDS011;9211;48.818;9.312;2022-12-20T12:38:02;24.73;;;13.20;;
18172;SDS011;9211;48.818;9.312;2022-12-20T12:40:51;24.35;;;13.07;;
18172;SDS011;9211;48.818;9.312;2022-12-20T12:43:44;23.60;;;13.10;;
18172;SDS011;9211;48.818;9.312;2022-12-20T12:46:15;21.50;;;12.55;;
18172;SDS011;9211;48.818;9.312;2022-12-20T12:48:45;25.83;;;13.35;;
18172;SDS011;9211;48.818;9.312;2022-12-20T12:51:21;22.85;;;12.52;;
18172;SDS011;9211;48.818;9.312;2022-12-20T12:53:53;20.55;;;12.65;;
18172;SDS011;9211;48.818;9.312;2022-12-20T12:56:28;22.27;;;12.63;;
18172;SDS011;9211;48.818;9.312;2022-12-20T12:59:08;21.58;;;12.27;;
18172;SDS011;9211;48.818;9.312;2022-12-20T13:01:49;21.92;;;12.38;;
18172;SDS011;9211;48.818;9.312;2022-12-20T13:04:22;20.40;;;12.07;;
18172;SDS011;9211;48.818;9.312;2022-12-20T13:06:56;21.00;;;11.83;;
18172;SDS011;9211;48.818;9.312;2022-12-20T13:09:35;21.85;;;12.32;;
18172;SDS011;9211;48.818;9.312;2022-12-20T13:18:22;22.25;;;11.85;;
18172;SDS011;9211;48.818;9.312;2022-12-20T13:27:21;19.08;;;11.07;;
18172;SDS011;9211;48.818;9.312;2022-12-20T13:29:52;21.00;;;11.48;;
18172;SDS011;9211;48.818;9.312;2022-12-20T13:32:52;21.25;;;11.40;;
18172;SDS011;9211;48.818;9.312;2022-12-20T13:35:29;20.73;;;11.03;;
18172;SDS011;9211;48.818;9.312;2022-12-20T13:41:10;25.38;;;13.38;;
18172;SDS011;9211;48.818;9.312;2022-12-20T13:43:45;23.90;;;12.40;;
18172;SDS011;9211;48.818;9.312;2022-12-20T13:46:17;18.70;;;10.27;;
18172;SDS011;9211;48.818;9.312;2022-12-20T13:48:50;16.55;;;9.85;;
18172;SDS011;9211;48.818;9.312;2022-12-20T13:51:19;17.13;;;9.87;;
18172;SDS011;9211;48.818;9.312;2022-12-20T13:53:51;17.42;;;9.63;;
18172;SDS011;9211;48.818;9.312;2022-12-20T13:56:28;18.35;;;9.77;;
18172;SDS011;9211;48.818;9.312;2022-12-20T13:59:04;15.88;;;9.55;;
18172;SDS011;9211;48.818;9.312;2022-12-20T14:01:33;17.77;;;9.57;;
18172;SDS011;9211;48.818;9.312;2022-12-20T14:04:02;19.73;;;10.57;;
18172;SDS011;9211;48.818;9.312;2022-12-20T14:06:32;17.50;;;10.60;;
18172;SDS011;9211;48.818;9.312;2022-12-20T14:08:59;17.67;;;10.23;;
18172;SDS011;9211;48.818;9.312;2022-12-20T14:11:27;18.02;;;10.45;;
18172;SDS011;9211;48.818;9.312;2022-12-20T14:13:54;27.33;;;14.52;;
18172;SDS011;9211;48.818;9.312;2022-12-20T14:16:24;25.48;;;12.98;;
18172;SDS011;9211;48.818;9.312;2022-12-20T14:18:59;21.60;;;11.73;;
18172;SDS011;9211;48.818;9.312;2022-12-20T14:21:27;22.45;;;12.00;;
18172;SDS011;9211;48.818;9.312;2022-12-20T14:23:55;20.67;;;11.38;;
18172;SDS011;9211;48.818;9.312;2022-12-20T14:26:23;20.25;;;11.57;;
18172;SDS011;9211;48.818;9.312;2022-12-20T14:28:53;19.60;;;11.40;;
18172;SDS011;9211;48.818;9.312;2022-12-20T14:31:24;22.63;;;11.77;;
18172;SDS011;9211;48.818;9.312;2022-12-20T14:34:03;19.10;;;11.52;;
18172;SDS011;9211;48.818;9.312;2022-12-20T14:36:32;20.02;;;11.10;;
18172;SDS011;9211;48.818;9.312;2022-12-20T14:39:00;20.20;;;11.65;;
18172;SDS011;9211;48.818;9.312;2022-12-20T14:41:28;19.50;;;11.60;;
18172;SDS011;9211;48.818;9.312;2022-12-20T14:43:57;20.27;;;12.00;;
18172;SDS011;9211;48.818;9.312;2022-12-20T14:46:28;23.70;;;12.68;;
18172;SDS011;9211;48.818;9.312;2022-12-20T14:49:14;22.33;;;12.93;;
18172;SDS011;9211;48.818;9.312;2022-12-20T14:51:46;22.60;;;12.93;;
18172;SDS011;9211;48.818;9.312;2022-12-20T14:54:15;23.30;;;13.23;;
18172;SDS011;9211;48.818;9.312;2022-12-20T14:56:44;22.90;;;13.57;;
18172;SDS011;9211;48.818;9.312;2022-12-20T14:59:15;25.17;;;13.90;;
18172;SDS011;9211;48.818;9.312;2022-12-20T15:01:51;23.42;;;13.10;;
18172;SDS011;9211;48.818;9.312;2022-12-20T15:04:20;24.52;;;13.98;;
18172;SDS011;9211;48.818;9.312;2022-12-20T15:06:49;25.45;;;14.13;;
18172;SDS011;9211;48.818;9.312;2022-12-20T15:09:18;24.23;;;13.88;;
18172;SDS011;9211;48.818;9.312;2022-12-20T15:11:45;26.48;;;14.40;;
18172;SDS011;9211;48.818;9.312;2022-12-20T15:14:19;28.13;;;15.52;;
18172;SDS011;9211;48.818;9.312;2022-12-20T15:16:58;27.27;;;15.95;;
18172;SDS011;9211;48.818;9.312;2022-12-20T15:19:26;27.70;;;15.93;;
18172;SDS011;9211;48.818;9.312;2022-12-20T15:21:55;25.43;;;15.40;;
18172;SDS011;9211;48.818;9.312;2022-12-20T15:24:23;27.65;;;15.52;;
18172;SDS011;9211;48.818;9.312;2022-12-20T15:26:51;26.60;;;15.50;;
18172;SDS011;9211;48.818;9.312;2022-12-20T15:29:20;26.40;;;14.85;;
18172;SDS011;9211;48.818;9.312;2022-12-20T15:31:48;33.55;;;16.83;;